sensor_id;sensor_type;location;lat;lon;timestamp;temperature;humidity
20973;DHT22;10645;52.370;13.314;2023-01-09T00:01:48;2.80;99.90
20973;DHT22;10645;52.370;13.314;2023-01-09T00:04:15;2.80;99.90
20973;DHT22;10645;52.370;13.314;2023-01-09T00:06:41;2.80;99.90
20973;DHT22;10645;52.370;13.314;2023-01-09T00:09:09;2.90;99.90
20973;DHT22;10645;52.370;13.314;2023-01-09T00:11:36;3.00;99.90
20973;DHT22;10645;52.370;13.314;2023-01-09T00:14:02;3.00;99.90
20973;DHT22;10645;52.370;13.314;2023-01-09T00:16:29;3.00;99.90
20973;DHT22;10645;52.370;13.314;2023-01-09T00:18:55;3.00;99.90
20973;DHT22;10645;52.370;13.314;2023-01-09T00:21:21;3.10;99.90
20973;DHT22;10645;52.370;13.314;2023-01-09T00:23:48;3.00;99.90
20973;DHT22;10645;52.370;13.314;2023-01-09T00:26:16;2.90;99.90
20973;DHT22;10645;52.370;13.314;2023-01-09T00:28:44;2.80;99.90
20973;DHT22;10645;52.370;13.314;2023-01-09T00:31:11;2.80;99.90
20973;DHT22;10645;52.370;13.314;2023-01-09T00:34:00;2.80;99.90
20973;DHT22;10645;52.370;13.314;2023-01-09T00:36:28;2.70;99.90
20973;DHT22;10645;52.370;13.314;2023-01-09T00:38:54;2.60;99.90
20973;DHT22;10645;52.370;13.314;2023-01-09T00:41:49;2.40;99.90
20973;DHT22;10645;52.370;13.314;2023-01-09T00:44:27;2.30;99.90
20973;DHT22;10645;52.370;13.314;2023-01-09T00:47:00;2.30;99.90
20973;DHT22;10645;52.370;13.314;2023-01-09T00:49:33;2.20;99.90
20973;DHT22;10645;52.370;13.314;2023-01-09T00:52:02;2.20;99.90
20973;DHT22;10645;52.370;13.314;2023-01-09T00:54:29;2.20;99.90
20973;DHT22;10645;52.370;13.314;2023-01-09T00:56:57;2.20;99.90
20973;DHT22;10645;52.370;13.314;2023-01-09T00:59:25;2.20;99.90
20973;DHT22;10645;52.370;13.314;2023-01-09T01:01:51;2.20;99.90
20973;DHT22;10645;52.370;13.314;2023-01-09T01:04:17;2.30;99.90
20973;DHT22;10645;52.370;13.314;2023-01-09T01:07:02;2.40;99.90
20973;DHT22;10645;52.370;13.314;2023-01-09T01:09:46;2.60;99.90
20973;DHT22;10645;52.370;13.314;2023-01-09T01:12:12;2.80;99.90
20973;DHT22;10645;52.370;13.314;2023-01-09T01:14:39;2.90;99.90
20973;DHT22;10645;52.370;13.314;2023-01-09T01:17:06;3.00;99.90
20973;DHT22;10645;52.370;13.314;2023-01-09T01:19:33;3.00;99.90
20973;DHT22;10645;52.370;13.314;2023-01-09T01:22:00;2.90;99.90
20973;DHT22;10645;52.370;13.314;2023-01-09T01:24:26;2.90;99.90
20973;DHT22;10645;52.370;13.314;2023-01-09T01:26:52;2.80;99.90
20973;DHT22;10645;52.370;13.314;2023-01-09T01:29:18;2.70;99.90
20973;DHT22;10645;52.370;13.314;2023-01-09T01:31:44;2.60;99.90
20973;DHT22;10645;52.370;13.314;2023-01-09T01:34:10;2.50;99.90
20973;DHT22;10645;52.370;13.314;2023-01-09T01:36:36;2.50;99.90
20973;DHT22;10645;52.370;13.314;2023-01-09T01:39:03;2.40;99.90
20973;DHT22;10645;52.370;13.314;2023-01-09T01:41:29;2.30;99.90
20973;DHT22;10645;52.370;13.314;2023-01-09T01:43:58;2.20;99.90
20973;DHT22;10645;52.370;13.314;2023-01-09T01:46:25;2.20;99.90
20973;DHT22;10645;52.370;13.314;2023-01-09T01:51:23;2.10;99.90
20973;DHT22;10645;52.370;13.314;2023-01-09T01:53:56;2.10;99.90
20973;DHT22;10645;52.370;13.314;2023-01-09T01:56:26;2.10;99.90
20973;DHT22;10645;52.370;13.314;2023-01-09T02:01:41;2.00;99.90
20973;DHT22;10645;52.370;13.314;2023-01-09T02:04:07;2.00;99.90
20973;DHT22;10645;52.370;13.314;2023-01-09T02:06:34;2.00;99.90
20973;DHT22;10645;52.370;13.314;2023-01-09T02:09:04;2.00;99.90
20973;DHT22;10645;52.370;13.314;2023-01-09T02:11:30;2.00;99.90
20973;DHT22;10645;52.370;13.314;2023-01-09T02:13:57;1.90;99.90
20973;DHT22;10645;52.370;13.314;2023-01-09T02:19:57;1.90;99.90
20973;DHT22;10645;52.370;13.314;2023-01-09T02:22:46;2.00;99.90
20973;DHT22;10645;52.370;13.314;2023-01-09T02:26:00;2.00;99.90
20973;DHT22;10645;52.370;13.314;2023-01-09T02:31:35;2.00;99.90
20973;DHT22;10645;52.370;13.314;2023-01-09T02:34:24;2.10;99.90
20973;DHT22;10645;52.370;13.314;2023-01-09T02:37:08;2.10;99.90
20973;DHT22;10645;52.370;13.314;2023-01-09T02:39:42;2.10;99.90
20973;DHT22;10645;52.370;13.314;2023-01-09T02:42:18;2.20;99.90
20973;DHT22;10645;52.370;13.314;2023-01-09T02:44:45;2.20;99.90
20973;DHT22;10645;52.370;13.314;2023-01-09T02:49:44;2.30;99.90
20973;DHT22;10645;52.370;13.314;2023-01-09T03:01:00;2.90;99.90
20973;DHT22;10645;52.370;13.314;2023-01-09T03:03:42;3.00;99.90
20973;DHT22;10645;52.370;13.314;2023-01-09T03:08:50;3.10;99.90
20973;DHT22;10645;52.370;13.314;2023-01-09T03:11:17;3.20;99.90
20973;DHT22;10645;52.370;13.314;2023-01-09T03:13:53;3.30;99.90
20973;DHT22;10645;52.370;13.314;2023-01-09T03:16:28;3.40;99.90
20973;DHT22;10645;52.370;13.314;2023-01-09T03:18:56;3.40;99.90
20973;DHT22;10645;52.370;13.314;2023-01-09T03:21:25;3.50;99.90
20973;DHT22;10645;52.370;13.314;2023-01-09T03:23:57;3.60;99.90
20973;DHT22;10645;52.370;13.314;2023-01-09T03:26:24;3.70;99.90
20973;DHT22;10645;52.370;13.314;2023-01-09T03:28:50;3.70;99.90
20973;DHT22;10645;52.370;13.314;2023-01-09T03:31:17;3.80;99.90
20973;DHT22;10645;52.370;13.314;2023-01-09T03:33:43;3.80;99.90
20973;DHT22;10645;52.370;13.314;2023-01-09T03:36:11;3.80;99.90
20973;DHT22;10645;52.370;13.314;2023-01-09T03:38:37;3.90;99.90
20973;DHT22;10645;52.370;13.314;2023-01-09T03:41:04;3.90;99.90
20973;DHT22;10645;52.370;13.314;2023-01-09T03:43:30;4.00;99.90
20973;DHT22;10645;52.370;13.314;2023-01-09T03:45:56;4.00;99.90
20973;DHT22;10645;52.370;13.314;2023-01-09T03:48:23;4.00;99.90
20973;DHT22;10645;52.370;13.314;2023-01-09T03:50:53;4.00;99.90
20973;DHT22;10645;52.370;13.314;2023-01-09T03:53:20;4.10;99.90
20973;DHT22;10645;52.370;13.314;2023-01-09T03:55:53;4.10;99.90
20973;DHT22;10645;52.370;13.314;2023-01-09T03:58:20;4.20;99.90
20973;DHT22;10645;52.370;13.314;2023-01-09T04:00:47;4.20;99.90
20973;DHT22;10645;52.370;13.314;2023-01-09T04:03:16;4.20;99.90
20973;DHT22;10645;52.370;13.314;2023-01-09T04:05:43;4.20;99.90
20973;DHT22;10645;52.370;13.314;2023-01-09T04:08:09;4.20;99.90
20973;DHT22;10645;52.370;13.314;2023-01-09T04:10:36;4.30;99.90
20973;DHT22;10645;52.370;13.314;2023-01-09T04:13:02;4.30;99.90
20973;DHT22;10645;52.370;13.314;2023-01-09T04:15:28;4.30;99.90
20973;DHT22;10645;52.370;13.314;2023-01-09T04:17:54;4.30;99.90
20973;DHT22;10645;52.370;13.314;2023-01-09T04:20:20;4.30;99.90
20973;DHT22;10645;52.370;13.314;2023-01-09T04:22:46;4.30;99.90
20973;DHT22;10645;52.370;13.314;2023-01-09T04:25:13;4.40;99.90
20973;DHT22;10645;52.370;13.314;2023-01-09T04:27:39;4.40;99.90
20973;DHT22;10645;52.370;13.314;2023-01-09T04:30:05;4.40;99.90
20973;DHT22;10645;52.370;13.314;2023-01-09T04:32:31;4.40;99.90
20973;DHT22;10645;52.370;13.314;2023-01-09T04:34:57;4.50;99.90
20973;DHT22;10645;52.370;13.314;2023-01-09T04:37:23;4.50;99.90
20973;DHT22;10645;52.370;13.314;2023-01-09T04:39:51;4.50;99.90
20973;DHT22;10645;52.370;13.314;2023-01-09T04:42:19;4.50;99.90
20973;DHT22;10645;52.370;13.314;2023-01-09T04:44:45;4.60;99.90
20973;DHT22;10645;52.370;13.314;2023-01-09T04:47:11;4.60;99.90
20973;DHT22;10645;52.370;13.314;2023-01-09T04:49:38;4.60;99.90
20973;DHT22;10645;52.370;13.314;2023-01-09T04:52:04;4.60;99.90
20973;DHT22;10645;52.370;13.314;2023-01-09T04:54:30;4.60;99.90
20973;DHT22;10645;52.370;13.314;2023-01-09T04:56:56;4.70;99.90
20973;DHT22;10645;52.370;13.314;2023-01-09T04:59:23;4.80;99.90
20973;DHT22;10645;52.370;13.314;2023-01-09T05:01:49;4.80;99.90
20973;DHT22;10645;52.370;13.314;2023-01-09T05:04:17;4.80;99.90
20973;DHT22;10645;52.370;13.314;2023-01-09T05:06:43;4.80;99.90
20973;DHT22;10645;52.370;13.314;2023-01-09T05:09:09;4.80;99.90
20973;DHT22;10645;52.370;13.314;2023-01-09T05:11:35;4.80;99.90
20973;DHT22;10645;52.370;13.314;2023-01-09T05:14:01;4.90;99.90
20973;DHT22;10645;52.370;13.314;2023-01-09T05:16:27;4.90;99.90
20973;DHT22;10645;52.370;13.314;2023-01-09T05:18:53;4.90;99.90
20973;DHT22;10645;52.370;13.314;2023-01-09T05:21:26;4.90;99.90
20973;DHT22;10645;52.370;13.314;2023-01-09T05:23:52;4.90;99.90
20973;DHT22;10645;52.370;13.314;2023-01-09T05:26:20;5.00;99.90
20973;DHT22;10645;52.370;13.314;2023-01-09T05:28:57;5.00;99.90
20973;DHT22;10645;52.370;13.314;2023-01-09T05:31:25;5.00;99.90
20973;DHT22;10645;52.370;13.314;2023-01-09T05:33:52;5.00;99.90
20973;DHT22;10645;52.370;13.314;2023-01-09T05:36:18;5.10;99.90
20973;DHT22;10645;52.370;13.314;2023-01-09T05:38:44;5.10;99.90
20973;DHT22;10645;52.370;13.314;2023-01-09T05:41:10;5.10;99.90
20973;DHT22;10645;52.370;13.314;2023-01-09T05:43:36;5.10;99.90
20973;DHT22;10645;52.370;13.314;2023-01-09T05:46:02;5.20;99.90
20973;DHT22;10645;52.370;13.314;2023-01-09T05:48:28;5.20;99.90
20973;DHT22;10645;52.370;13.314;2023-01-09T05:50:54;5.20;99.90
20973;DHT22;10645;52.370;13.314;2023-01-09T05:53:20;5.20;99.90
20973;DHT22;10645;52.370;13.314;2023-01-09T05:55:46;5.20;99.90
20973;DHT22;10645;52.370;13.314;2023-01-09T05:58:13;5.20;99.90
20973;DHT22;10645;52.370;13.314;2023-01-09T06:00:39;5.20;99.90
20973;DHT22;10645;52.370;13.314;2023-01-09T06:03:05;5.20;99.90
20973;DHT22;10645;52.370;13.314;2023-01-09T06:05:31;5.20;99.90
20973;DHT22;10645;52.370;13.314;2023-01-09T06:07:57;5.20;99.90
20973;DHT22;10645;52.370;13.314;2023-01-09T06:10:23;5.20;99.90
20973;DHT22;10645;52.370;13.314;2023-01-09T06:12:50;5.20;99.90
20973;DHT22;10645;52.370;13.314;2023-01-09T06:15:16;5.20;99.90
20973;DHT22;10645;52.370;13.314;2023-01-09T06:17:42;5.20;99.90
20973;DHT22;10645;52.370;13.314;2023-01-09T06:20:09;5.20;99.90
20973;DHT22;10645;52.370;13.314;2023-01-09T06:22:35;5.20;99.90
20973;DHT22;10645;52.370;13.314;2023-01-09T06:25:01;5.20;99.90
20973;DHT22;10645;52.370;13.314;2023-01-09T06:27:28;5.20;99.90
20973;DHT22;10645;52.370;13.314;2023-01-09T06:29:54;5.20;99.90
20973;DHT22;10645;52.370;13.314;2023-01-09T06:32:20;5.20;99.90
20973;DHT22;10645;52.370;13.314;2023-01-09T06:34:46;5.20;99.90
20973;DHT22;10645;52.370;13.314;2023-01-09T06:37:12;5.30;99.90
20973;DHT22;10645;52.370;13.314;2023-01-09T06:39:38;5.30;99.90
20973;DHT22;10645;52.370;13.314;2023-01-09T06:42:04;5.20;99.90
20973;DHT22;10645;52.370;13.314;2023-01-09T06:44:30;5.30;99.90
20973;DHT22;10645;52.370;13.314;2023-01-09T06:46:58;5.30;99.90
20973;DHT22;10645;52.370;13.314;2023-01-09T06:49:24;5.30;99.90
20973;DHT22;10645;52.370;13.314;2023-01-09T06:51:50;5.30;99.90
20973;DHT22;10645;52.370;13.314;2023-01-09T06:54:18;5.30;99.90
20973;DHT22;10645;52.370;13.314;2023-01-09T06:56:44;5.30;99.90
20973;DHT22;10645;52.370;13.314;2023-01-09T06:59:11;5.30;99.90
20973;DHT22;10645;52.370;13.314;2023-01-09T07:01:37;5.30;99.90
20973;DHT22;10645;52.370;13.314;2023-01-09T07:04:07;5.40;99.90
20973;DHT22;10645;52.370;13.314;2023-01-09T07:06:35;5.30;99.90
20973;DHT22;10645;52.370;13.314;2023-01-09T07:09:01;5.40;99.90
20973;DHT22;10645;52.370;13.314;2023-01-09T07:11:27;5.40;99.90
20973;DHT22;10645;52.370;13.314;2023-01-09T07:13:53;5.40;99.90
20973;DHT22;10645;52.370;13.314;2023-01-09T07:16:19;5.40;99.90
20973;DHT22;10645;52.370;13.314;2023-01-09T07:18:45;5.40;99.90
20973;DHT22;10645;52.370;13.314;2023-01-09T07:21:11;5.50;99.90
20973;DHT22;10645;52.370;13.314;2023-01-09T07:23:37;5.40;99.90
20973;DHT22;10645;52.370;13.314;2023-01-09T07:26:04;5.40;99.90
20973;DHT22;10645;52.370;13.314;2023-01-09T07:28:30;5.50;99.90
20973;DHT22;10645;52.370;13.314;2023-01-09T07:30:58;5.50;99.90
20973;DHT22;10645;52.370;13.314;2023-01-09T07:33:26;5.50;99.90
20973;DHT22;10645;52.370;13.314;2023-01-09T07:35:52;5.50;99.90
20973;DHT22;10645;52.370;13.314;2023-01-09T07:38:18;5.50;99.90
20973;DHT22;10645;52.370;13.314;2023-01-09T07:40:44;5.50;99.90
20973;DHT22;10645;52.370;13.314;2023-01-09T07:43:10;5.50;99.90
20973;DHT22;10645;52.370;13.314;2023-01-09T07:45:36;5.50;99.90
20973;DHT22;10645;52.370;13.314;2023-01-09T07:48:02;5.50;99.90
20973;DHT22;10645;52.370;13.314;2023-01-09T07:50:28;5.50;99.90
20973;DHT22;10645;52.370;13.314;2023-01-09T07:52:55;5.50;99.90
20973;DHT22;10645;52.370;13.314;2023-01-09T07:55:21;5.50;99.90
20973;DHT22;10645;52.370;13.314;2023-01-09T07:57:48;5.50;99.90
20973;DHT22;10645;52.370;13.314;2023-01-09T08:00:15;5.60;99.90
20973;DHT22;10645;52.370;13.314;2023-01-09T08:02:41;5.60;99.90
20973;DHT22;10645;52.370;13.314;2023-01-09T08:05:07;5.60;99.90
20973;DHT22;10645;52.370;13.314;2023-01-09T08:07:35;5.60;99.90
20973;DHT22;10645;52.370;13.314;2023-01-09T08:10:01;5.60;99.90
20973;DHT22;10645;52.370;13.314;2023-01-09T08:12:27;5.60;99.90
20973;DHT22;10645;52.370;13.314;2023-01-09T08:14:53;5.60;99.90
20973;DHT22;10645;52.370;13.314;2023-01-09T08:17:19;5.70;99.90
20973;DHT22;10645;52.370;13.314;2023-01-09T08:19:45;5.70;99.90
20973;DHT22;10645;52.370;13.314;2023-01-09T08:22:11;5.70;99.90
20973;DHT22;10645;52.370;13.314;2023-01-09T08:24:38;5.70;99.90
20973;DHT22;10645;52.370;13.314;2023-01-09T08:27:04;5.80;99.90
20973;DHT22;10645;52.370;13.314;2023-01-09T08:29:30;5.80;99.90
20973;DHT22;10645;52.370;13.314;2023-01-09T08:31:56;5.80;99.90
20973;DHT22;10645;52.370;13.314;2023-01-09T08:34:22;5.90;99.90
20973;DHT22;10645;52.370;13.314;2023-01-09T08:36:48;5.90;99.90
20973;DHT22;10645;52.370;13.314;2023-01-09T08:39:14;5.90;99.90
20973;DHT22;10645;52.370;13.314;2023-01-09T08:41:40;6.00;99.90
20973;DHT22;10645;52.370;13.314;2023-01-09T08:44:24;6.00;99.90
20973;DHT22;10645;52.370;13.314;2023-01-09T08:47:09;6.00;99.90
20973;DHT22;10645;52.370;13.314;2023-01-09T08:49:37;6.00;99.90
20973;DHT22;10645;52.370;13.314;2023-01-09T08:52:04;6.00;99.90
20973;DHT22;10645;52.370;13.314;2023-01-09T08:54:31;6.00;99.90
20973;DHT22;10645;52.370;13.314;2023-01-09T08:56:57;6.00;99.90
20973;DHT22;10645;52.370;13.314;2023-01-09T08:59:23;6.00;99.90
20973;DHT22;10645;52.370;13.314;2023-01-09T09:01:49;6.00;99.90
20973;DHT22;10645;52.370;13.314;2023-01-09T09:04:15;6.00;99.90
20973;DHT22;10645;52.370;13.314;2023-01-09T09:06:41;6.00;99.90
20973;DHT22;10645;52.370;13.314;2023-01-09T09:09:07;6.00;99.90
20973;DHT22;10645;52.370;13.314;2023-01-09T09:11:33;6.00;99.90
20973;DHT22;10645;52.370;13.314;2023-01-09T09:13:59;6.10;99.90
20973;DHT22;10645;52.370;13.314;2023-01-09T09:16:26;6.10;99.90
20973;DHT22;10645;52.370;13.314;2023-01-09T09:18:52;6.20;99.90
20973;DHT22;10645;52.370;13.314;2023-01-09T09:21:18;6.20;99.90
20973;DHT22;10645;52.370;13.314;2023-01-09T09:23:45;6.30;99.90
20973;DHT22;10645;52.370;13.314;2023-01-09T09:26:12;6.30;99.90
20973;DHT22;10645;52.370;13.314;2023-01-09T09:28:38;6.40;99.90
20973;DHT22;10645;52.370;13.314;2023-01-09T09:31:05;6.40;99.90
20973;DHT22;10645;52.370;13.314;2023-01-09T09:33:31;6.50;99.90
20973;DHT22;10645;52.370;13.314;2023-01-09T09:35:58;6.50;99.90
20973;DHT22;10645;52.370;13.314;2023-01-09T09:38:24;6.60;99.90
20973;DHT22;10645;52.370;13.314;2023-01-09T09:44:18;6.70;99.90
20973;DHT22;10645;52.370;13.314;2023-01-09T09:49:59;6.90;99.90
20973;DHT22;10645;52.370;13.314;2023-01-09T09:55:17;7.10;99.90
20973;DHT22;10645;52.370;13.314;2023-01-09T09:57:45;7.20;99.90
20973;DHT22;10645;52.370;13.314;2023-01-09T10:00:18;7.30;99.90
20973;DHT22;10645;52.370;13.314;2023-01-09T10:02:52;7.30;99.90
20973;DHT22;10645;52.370;13.314;2023-01-09T10:05:32;7.40;99.90
20973;DHT22;10645;52.370;13.314;2023-01-09T10:08:12;7.40;99.90
20973;DHT22;10645;52.370;13.314;2023-01-09T10:10:45;7.40;99.90
20973;DHT22;10645;52.370;13.314;2023-01-09T10:13:17;7.50;99.90
20973;DHT22;10645;52.370;13.314;2023-01-09T10:30:34;7.90;99.90
20973;DHT22;10645;52.370;13.314;2023-01-09T10:33:42;7.80;99.90
20973;DHT22;10645;52.370;13.314;2023-01-09T10:36:39;7.80;99.90
20973;DHT22;10645;52.370;13.314;2023-01-09T10:39:23;7.80;99.90
20973;DHT22;10645;52.370;13.314;2023-01-09T10:42:00;7.80;99.90
20973;DHT22;10645;52.370;13.314;2023-01-09T10:44:33;7.80;99.90
20973;DHT22;10645;52.370;13.314;2023-01-09T10:47:04;7.80;99.90
20973;DHT22;10645;52.370;13.314;2023-01-09T10:49:34;7.80;99.90
20973;DHT22;10645;52.370;13.314;2023-01-09T10:52:16;7.80;99.90
20973;DHT22;10645;52.370;13.314;2023-01-09T10:55:04;7.80;99.90
20973;DHT22;10645;52.370;13.314;2023-01-09T10:57:41;7.80;99.90
20973;DHT22;10645;52.370;13.314;2023-01-09T11:00:21;7.90;99.90
20973;DHT22;10645;52.370;13.314;2023-01-09T11:02:47;7.90;99.90
20973;DHT22;10645;52.370;13.314;2023-01-09T11:05:22;7.90;99.90
20973;DHT22;10645;52.370;13.314;2023-01-09T11:07:54;8.00;99.90
20973;DHT22;10645;52.370;13.314;2023-01-09T11:10:21;8.00;99.90
20973;DHT22;10645;52.370;13.314;2023-01-09T11:12:47;8.10;99.90
20973;DHT22;10645;52.370;13.314;2023-01-09T11:17:46;8.00;99.90
20973;DHT22;10645;52.370;13.314;2023-01-09T11:20:18;8.10;99.90
20973;DHT22;10645;52.370;13.314;2023-01-09T11:22:47;8.10;99.90
20973;DHT22;10645;52.370;13.314;2023-01-09T11:25:16;8.10;99.90
20973;DHT22;10645;52.370;13.314;2023-01-09T11:27:43;8.10;99.90
20973;DHT22;10645;52.370;13.314;2023-01-09T11:30:17;8.10;99.90
20973;DHT22;10645;52.370;13.314;2023-01-09T11:32:54;8.10;99.90
20973;DHT22;10645;52.370;13.314;2023-01-09T11:35:29;8.00;99.90
20973;DHT22;10645;52.370;13.314;2023-01-09T11:38:03;8.10;99.90
20973;DHT22;10645;52.370;13.314;2023-01-09T11:40:42;8.10;99.90
20973;DHT22;10645;52.370;13.314;2023-01-09T11:45:52;8.20;99.90
20973;DHT22;10645;52.370;13.314;2023-01-09T11:48:41;8.30;99.90
20973;DHT22;10645;52.370;13.314;2023-01-09T11:51:20;8.30;99.90
20973;DHT22;10645;52.370;13.314;2023-01-09T11:56:35;8.40;99.90
20973;DHT22;10645;52.370;13.314;2023-01-09T11:59:10;8.50;99.90
20973;DHT22;10645;52.370;13.314;2023-01-09T12:02:00;8.50;99.90
20973;DHT22;10645;52.370;13.314;2023-01-09T12:04:52;8.60;99.90
20973;DHT22;10645;52.370;13.314;2023-01-09T12:07:40;8.70;99.90
20973;DHT22;10645;52.370;13.314;2023-01-09T12:13:22;9.00;99.90
20973;DHT22;10645;52.370;13.314;2023-01-09T12:19:05;9.40;99.90
20973;DHT22;10645;52.370;13.314;2023-01-09T12:21:48;9.50;99.90
20973;DHT22;10645;52.370;13.314;2023-01-09T12:24:49;9.50;99.90
20973;DHT22;10645;52.370;13.314;2023-01-09T12:27:49;9.60;99.90
20973;DHT22;10645;52.370;13.314;2023-01-09T12:30:23;9.70;99.90
20973;DHT22;10645;52.370;13.314;2023-01-09T12:35:44;9.70;99.90
20973;DHT22;10645;52.370;13.314;2023-01-09T12:47:08;9.70;99.90
20973;DHT22;10645;52.370;13.314;2023-01-09T12:50:02;9.60;99.90
20973;DHT22;10645;52.370;13.314;2023-01-09T12:52:39;9.30;99.90
20973;DHT22;10645;52.370;13.314;2023-01-09T12:55:17;9.20;99.90
20973;DHT22;10645;52.370;13.314;2023-01-09T12:57:48;9.20;99.90
20973;DHT22;10645;52.370;13.314;2023-01-09T13:00:31;9.10;99.90
20973;DHT22;10645;52.370;13.314;2023-01-09T13:03:19;9.10;99.90
20973;DHT22;10645;52.370;13.314;2023-01-09T13:05:50;9.00;99.90
20973;DHT22;10645;52.370;13.314;2023-01-09T13:08:32;9.00;99.90
20973;DHT22;10645;52.370;13.314;2023-01-09T13:11:10;9.00;99.90
20973;DHT22;10645;52.370;13.314;2023-01-09T13:13:41;8.90;99.90
20973;DHT22;10645;52.370;13.314;2023-01-09T13:16:20;8.90;99.90
20973;DHT22;10645;52.370;13.314;2023-01-09T13:18:58;8.90;99.90
20973;DHT22;10645;52.370;13.314;2023-01-09T13:21:25;8.80;99.90
20973;DHT22;10645;52.370;13.314;2023-01-09T13:24:13;8.80;99.90
20973;DHT22;10645;52.370;13.314;2023-01-09T13:26:47;8.70;99.90
20973;DHT22;10645;52.370;13.314;2023-01-09T13:29:29;8.70;99.90
20973;DHT22;10645;52.370;13.314;2023-01-09T13:32:10;8.70;99.90
20973;DHT22;10645;52.370;13.314;2023-01-09T13:34:39;8.60;99.90
20973;DHT22;10645;52.370;13.314;2023-01-09T13:42:43;8.50;99.90
20973;DHT22;10645;52.370;13.314;2023-01-09T13:45:21;8.50;99.90
20973;DHT22;10645;52.370;13.314;2023-01-09T13:50:37;8.40;99.90
20973;DHT22;10645;52.370;13.314;2023-01-09T13:58:27;8.50;99.90
20973;DHT22;10645;52.370;13.314;2023-01-09T14:00:55;8.40;99.90
20973;DHT22;10645;52.370;13.314;2023-01-09T14:03:33;8.40;99.90
20973;DHT22;10645;52.370;13.314;2023-01-09T14:08:29;8.30;99.90
20973;DHT22;10645;52.370;13.314;2023-01-09T14:10:59;8.30;99.90
20973;DHT22;10645;52.370;13.314;2023-01-09T14:13:42;8.30;99.90
20973;DHT22;10645;52.370;13.314;2023-01-09T14:16:20;8.30;99.90
20973;DHT22;10645;52.370;13.314;2023-01-09T14:19:01;8.30;99.90
20973;DHT22;10645;52.370;13.314;2023-01-09T14:21:43;8.20;99.90
20973;DHT22;10645;52.370;13.314;2023-01-09T14:24:16;8.20;99.90
20973;DHT22;10645;52.370;13.314;2023-01-09T14:26:45;8.10;99.90
20973;DHT22;10645;52.370;13.314;2023-01-09T14:34:52;8.10;99.90
20973;DHT22;10645;52.370;13.314;2023-01-09T14:37:21;8.10;99.90
20973;DHT22;10645;52.370;13.314;2023-01-09T14:39:48;8.10;99.90
20973;DHT22;10645;52.370;13.314;2023-01-09T14:42:20;8.00;99.90
20973;DHT22;10645;52.370;13.314;2023-01-09T14:47:39;8.00;99.90
20973;DHT22;10645;52.370;13.314;2023-01-09T14:50:18;8.00;99.90
20973;DHT22;10645;52.370;13.314;2023-01-09T14:53:05;8.00;99.90
20973;DHT22;10645;52.370;13.314;2023-01-09T14:55:52;8.00;99.90
20973;DHT22;10645;52.370;13.314;2023-01-09T14:58:26;7.90;99.90
20973;DHT22;10645;52.370;13.314;2023-01-09T15:01:00;7.70;99.90
20973;DHT22;10645;52.370;13.314;2023-01-09T15:03:39;7.60;99.90
20973;DHT22;10645;52.370;13.314;2023-01-09T15:06:13;7.40;99.90
20973;DHT22;10645;52.370;13.314;2023-01-09T15:08:43;7.20;99.90
20973;DHT22;10645;52.370;13.314;2023-01-09T15:11:10;7.10;99.90
20973;DHT22;10645;52.370;13.314;2023-01-09T15:13:43;7.00;99.90
20973;DHT22;10645;52.370;13.314;2023-01-09T15:16:17;7.00;99.90
20973;DHT22;10645;52.370;13.314;2023-01-09T15:18:47;7.00;99.90
20973;DHT22;10645;52.370;13.314;2023-01-09T15:21:18;7.00;99.90
20973;DHT22;10645;52.370;13.314;2023-01-09T15:23:44;7.00;99.90
20973;DHT22;10645;52.370;13.314;2023-01-09T15:26:33;7.00;99.90
20973;DHT22;10645;52.370;13.314;2023-01-09T15:29:12;7.00;99.90
20973;DHT22;10645;52.370;13.314;2023-01-09T15:31:43;7.00;99.90
20973;DHT22;10645;52.370;13.314;2023-01-09T15:34:16;7.00;99.90
20973;DHT22;10645;52.370;13.314;2023-01-09T15:36:44;7.10;99.90
20973;DHT22;10645;52.370;13.314;2023-01-09T15:39:20;7.10;99.90
20973;DHT22;10645;52.370;13.314;2023-01-09T15:41:47;7.10;99.90
20973;DHT22;10645;52.370;13.314;2023-01-09T15:44:31;7.10;99.90
20973;DHT22;10645;52.370;13.314;2023-01-09T15:47:03;7.10;99.90
20973;DHT22;10645;52.370;13.314;2023-01-09T15:49:31;7.10;99.90
20973;DHT22;10645;52.370;13.314;2023-01-09T15:51:57;7.20;99.90
20973;DHT22;10645;52.370;13.314;2023-01-09T15:54:28;7.20;99.90
20973;DHT22;10645;52.370;13.314;2023-01-09T15:59:52;7.20;99.90
20973;DHT22;10645;52.370;13.314;2023-01-09T16:02:20;7.20;99.90
20973;DHT22;10645;52.370;13.314;2023-01-09T16:05:15;7.20;99.90
20973;DHT22;10645;52.370;13.314;2023-01-09T16:07:46;7.10;99.90
20973;DHT22;10645;52.370;13.314;2023-01-09T16:10:28;7.10;99.90
20973;DHT22;10645;52.370;13.314;2023-01-09T16:12:56;7.10;99.90
20973;DHT22;10645;52.370;13.314;2023-01-09T16:15:22;7.00;99.90
20973;DHT22;10645;52.370;13.314;2023-01-09T16:20:38;6.90;99.90
20973;DHT22;10645;52.370;13.314;2023-01-09T16:23:23;6.90;99.90
20973;DHT22;10645;52.370;13.314;2023-01-09T16:28:31;6.70;99.90
20973;DHT22;10645;52.370;13.314;2023-01-09T16:31:02;6.60;99.90
20973;DHT22;10645;52.370;13.314;2023-01-09T16:33:32;6.50;99.90
20973;DHT22;10645;52.370;13.314;2023-01-09T16:35:58;6.30;99.90
20973;DHT22;10645;52.370;13.314;2023-01-09T16:38:25;6.20;99.90
20973;DHT22;10645;52.370;13.314;2023-01-09T16:43:43;6.20;99.90
20973;DHT22;10645;52.370;13.314;2023-01-09T16:46:11;6.30;99.90
20973;DHT22;10645;52.370;13.314;2023-01-09T16:48:38;6.30;99.90
20973;DHT22;10645;52.370;13.314;2023-01-09T16:51:05;6.40;99.90
20973;DHT22;10645;52.370;13.314;2023-01-09T16:53:31;6.50;99.90
20973;DHT22;10645;52.370;13.314;2023-01-09T16:55:58;6.60;99.90
20973;DHT22;10645;52.370;13.314;2023-01-09T16:58:28;6.70;99.90
20973;DHT22;10645;52.370;13.314;2023-01-09T17:00:56;6.70;99.90
20973;DHT22;10645;52.370;13.314;2023-01-09T17:03:22;6.70;99.90
20973;DHT22;10645;52.370;13.314;2023-01-09T17:05:52;6.70;99.90
20973;DHT22;10645;52.370;13.314;2023-01-09T17:10:51;6.50;99.90
20973;DHT22;10645;52.370;13.314;2023-01-09T17:13:17;6.40;99.90
20973;DHT22;10645;52.370;13.314;2023-01-09T17:15:43;6.30;99.90
20973;DHT22;10645;52.370;13.314;2023-01-09T17:18:20;6.20;99.90
20973;DHT22;10645;52.370;13.314;2023-01-09T17:20:51;6.10;99.90
20973;DHT22;10645;52.370;13.314;2023-01-09T17:23:18;6.10;99.90
20973;DHT22;10645;52.370;13.314;2023-01-09T17:25:47;6.00;99.90
20973;DHT22;10645;52.370;13.314;2023-01-09T17:28:32;5.90;99.90
20973;DHT22;10645;52.370;13.314;2023-01-09T17:31:03;5.90;99.90
20973;DHT22;10645;52.370;13.314;2023-01-09T17:33:35;5.80;99.90
20973;DHT22;10645;52.370;13.314;2023-01-09T17:36:02;5.80;99.90
20973;DHT22;10645;52.370;13.314;2023-01-09T17:38:28;5.70;99.90
20973;DHT22;10645;52.370;13.314;2023-01-09T17:40:54;5.70;99.90
20973;DHT22;10645;52.370;13.314;2023-01-09T17:43:21;5.60;99.90
20973;DHT22;10645;52.370;13.314;2023-01-09T17:45:47;5.50;99.90